Time;durP1;ratioP1;P1;durP2;ratioP2;P2;SDS_P1;SDS_P2;PMS_P1;PMS_P2;Temp;Humidity;BMP_temperature;BMP_pressure;BME280_temperature;BME280_humidity;BME280_pressure;Samples;Min_cycle;Max_cycle;Signal;HPM_P1;HPM_P2
2024/02/01 00:00:35;;;;;;;26.70;17.70;;;;;;;2.24;100.00;101812.87;105768;1256;60501;-83
2024/02/01 00:03:02;;;;;;;26.70;16.50;;;;;;;2.24;100.00;101809.59;105742;1254;73879;-85
2024/02/01 00:05:30;;;;;;;29.20;16.40;;;;;;;2.24;100.00;101808.38;105852;1257;64035;-84
2024/02/01 00:07:57;;;;;;;25.70;16.50;;;;;;;2.23;100.00;101808.05;105968;1254;72652;-83
2024/02/01 00:10:24;;;;;;;26.20;15.50;;;;;;;2.25;100.00;101807.17;106093;1257;61077;-83
2024/02/01 00:12:51;;;;;;;23.80;16.70;;;;;;;2.26;100.00;101809.24;105955;1254;60483;-84
2024/02/01 00:15:18;;;;;;;22.10;15.80;;;;;;;2.24;100.00;101795.80;105794;1254;74028;-84
2024/02/01 00:17:45;;;;;;;22.40;14.80;;;;;;;2.27;100.00;101793.54;105849;1257;63907;-83
2024/02/01 00:20:13;;;;;;;26.80;15.70;;;;;;;2.26;100.00;101792.32;105725;1258;71491;-85
2024/02/01 00:22:40;;;;;;;22.40;14.80;;;;;;;2.27;100.00;101786.64;105836;1253;61004;-82
2024/02/01 00:25:07;;;;;;;21.70;14.10;;;;;;;2.26;100.00;101781.96;105823;1257;60362;-83
2024/02/01 00:27:34;;;;;;;27.80;16.20;;;;;;;2.26;100.00;101774.05;105912;1256;73155;-82
2024/02/01 00:30:02;;;;;;;23.50;15.10;;;;;;;2.27;100.00;101774.73;105874;1257;62549;-84
2024/02/01 00:32:30;;;;;;;22.60;14.90;;;;;;;2.27;100.00;101770.93;105784;1257;73469;-85
2024/02/01 00:34:57;;;;;;;26.10;16.20;;;;;;;2.26;100.00;101766.80;105880;1255;61091;-83
2024/02/01 00:37:24;;;;;;;28.80;18.20;;;;;;;2.25;100.00;101763.52;105808;1254;60563;-83
2024/02/01 00:39:52;;;;;;;27.20;15.40;;;;;;;2.25;100.00;101759.73;105944;1254;72446;-83
2024/02/01 00:42:19;;;;;;;23.60;14.10;;;;;;;2.25;100.00;101765.25;106406;1254;64493;-82
2024/02/01 00:44:46;;;;;;;25.40;14.10;;;;;;;2.25;100.00;101766.80;106302;1254;72519;-81
2024/02/01 00:47:13;;;;;;;25.10;14.40;;;;;;;2.23;100.00;101766.13;105871;1255;61348;-83
2024/02/01 00:49:41;;;;;;;23.60;14.60;;;;;;;2.23;100.00;101763.37;105820;1254;60531;-83
2024/02/01 00:52:08;;;;;;;21.10;13.40;;;;;;;2.22;100.00;101759.41;105793;1254;73684;-82
2024/02/01 00:54:38;;;;;;;20.90;14.80;;;;;;;2.21;100.00;101758.72;106608;1255;64043;-82
2024/02/01 00:57:05;;;;;;;27.10;16.90;;;;;;;2.21;100.00;101754.23;105939;1254;72689;-82
2024/02/01 00:59:32;;;;;;;22.60;14.50;;;;;;;2.19;100.00;101753.05;105760;1256;61220;-84
2024/02/01 01:01:58;;;;;;;24.10;15.30;;;;;;;2.20;100.00;101750.95;105992;1254;60317;-81
2024/02/01 01:04:25;;;;;;;23.50;14.60;;;;;;;2.19;100.00;101750.63;107286;1254;73795;-81
2024/02/01 01:06:53;;;;;;;22.90;15.20;;;;;;;2.19;100.00;101752.53;106733;1257;63926;-82
2024/02/01 01:09:20;;;;;;;24.30;15.80;;;;;;;2.20;100.00;101753.55;106185;1255;72725;-80
2024/02/01 01:11:47;;;;;;;21.40;14.20;;;;;;;2.20;100.00;101753.04;106074;1257;61064;-82
2024/02/01 01:14:14;;;;;;;21.40;14.80;;;;;;;2.19;100.00;101750.98;105873;1254;60455;-81
2024/02/01 01:16:41;;;;;;;24.90;16.20;;;;;;;2.18;100.00;101748.04;105778;1254;72863;-82
2024/02/01 01:19:08;;;;;;;22.00;13.80;;;;;;;2.18;100.00;101748.22;105954;1257;62475;-83
2024/02/01 01:21:35;;;;;;;20.40;14.60;;;;;;;2.16;100.00;101739.62;105879;1254;72400;-81
2024/02/01 01:24:02;;;;;;;25.40;14.80;;;;;;;2.14;100.00;101736.52;105784;1257;60892;-83
2024/02/01 01:26:30;;;;;;;23.60;14.90;;;;;;;2.11;100.00;101737.40;105789;1254;161759;-83
2024/02/01 01:30:11;;;;;;;31.00;17.50;;;;;;;2.09;100.00;101736.38;102606;1294;601571;-82
2024/02/01 01:32:39;;;;;;;24.90;14.90;;;;;;;2.03;100.00;101733.65;105146;1271;61238;-83
2024/02/01 01:35:06;;;;;;;27.20;15.00;;;;;;;2.00;100.00;101725.23;105323;1266;59363;-84
2024/02/01 01:37:32;;;;;;;25.90;16.10;;;;;;;1.96;100.00;101722.33;105238;1262;72330;-82
2024/02/01 01:39:59;;;;;;;26.00;15.40;;;;;;;1.92;100.00;101721.13;105644;1266;63892;-82
2024/02/01 01:42:27;;;;;;;23.20;15.10;;;;;;;1.87;100.00;101719.27;105752;1266;198862;-82
2024/02/01 01:44:54;;;;;;;23.70;14.90;;;;;;;1.84;100.00;101719.80;105932;1260;61192;-82
2024/02/01 01:47:26;;;;;;;25.00;14.70;;;;;;;1.82;100.00;101720.86;105802;1261;60307;-83
2024/02/01 01:49:53;;;;;;;26.90;17.60;;;;;;;1.79;100.00;101722.60;105730;1263;71977;-83
2024/02/01 01:52:20;;;;;;;21.40;12.90;;;;;;;1.76;100.00;101721.91;105951;1266;64015;-81
2024/02/01 01:54:47;;;;;;;23.10;14.80;;;;;;;1.74;100.00;101713.16;105985;1266;72529;-83
2024/02/01 01:57:14;;;;;;;27.60;15.90;;;;;;;1.74;100.00;101715.39;105542;1263;60983;-80
2024/02/01 01:59:41;;;;;;;23.90;15.40;;;;;;;1.72;100.00;101707.64;105280;1260;60104;-82
2024/02/01 02:02:10;;;;;;;23.40;15.10;;;;;;;1.69;100.00;101698.00;105614;1264;71611;-81
2024/02/01 02:04:37;;;;;;;27.70;16.70;;;;;;;1.68;100.00;101695.27;105881;1263;64117;-80
2024/02/01 02:07:04;;;;;;;27.70;16.70;;;;;;;1.67;100.00;101692.50;105744;1260;72662;-82
2024/02/01 02:09:31;;;;;;;26.10;16.80;;;;;;;1.67;100.00;101692.51;105799;1260;61171;-82
2024/02/01 02:11:58;;;;;;;27.90;15.10;;;;;;;1.67;100.00;101684.23;105878;1260;60215;-82
2024/02/01 02:14:25;;;;;;;27.70;17.70;;;;;;;1.67;100.00;101683.72;106684;1258;71455;-83
2024/02/01 02:16:52;;;;;;;29.80;17.20;;;;;;;1.68;100.00;101685.09;106551;1260;62690;-80
2024/02/01 02:19:19;;;;;;;26.60;16.70;;;;;;;1.69;100.00;101679.91;105879;1258;72737;-81
2024/02/01 02:21:48;;;;;;;26.50;15.00;;;;;;;1.70;100.00;101675.59;105845;1260;59802;-81
2024/02/01 02:24:15;;;;;;;21.40;14.30;;;;;;;1.71;100.00;101674.89;105772;1260;60301;-82
2024/02/01 02:26:43;;;;;;;23.60;14.20;;;;;;;1.72;100.00;101670.06;105696;1260;71898;-82
2024/02/01 02:29:10;;;;;;;27.70;16.80;;;;;;;1.73;100.00;101669.02;105923;1259;62252;-83
2024/02/01 02:31:37;;;;;;;29.00;16.00;;;;;;;1.72;100.00;101662.66;105719;1260;71612;-81
2024/02/01 02:34:05;;;;;;;26.00;15.40;;;;;;;1.70;100.00;101663.70;105742;1255;59761;-81
2024/02/01 02:36:32;;;;;;;23.60;14.70;;;;;;;1.69;100.00;101660.95;106049;1261;59976;-83
2024/02/01 02:39:00;;;;;;;25.40;15.00;;;;;;;1.68;100.00;101660.09;105568;1267;73082;-83
2024/02/01 02:41:27;;;;;;;23.80;16.30;;;;;;;1.69;100.00;101658.01;105654;1269;63573;-85
2024/02/01 02:43:56;;;;;;;25.10;15.40;;;;;;;1.68;100.00;101659.73;105877;1269;72705;-84
2024/02/01 02:46:25;;;;;;;28.00;16.00;;;;;;;1.69;100.00;101658.19;105757;1260;61167;-85
2024/02/01 02:48:52;;;;;;;27.30;15.80;;;;;;;1.69;100.00;101652.33;106007;1266;59675;-82
2024/02/01 02:51:19;;;;;;;26.30;16.30;;;;;;;1.70;100.00;101651.80;105916;1257;72801;-82
2024/02/01 02:53:47;;;;;;;26.20;15.70;;;;;;;1.73;100.00;101646.27;105839;1256;63841;-83
2024/02/01 02:56:14;;;;;;;28.30;16.50;;;;;;;1.75;100.00;101644.88;105792;1257;71136;-84
2024/02/01 02:58:41;;;;;;;25.60;16.20;;;;;;;1.77;100.00;101645.55;105851;1256;60850;-84
2024/02/01 03:01:09;;;;;;;22.70;14.50;;;;;;;1.79;100.00;101644.66;105868;1255;60016;-82
2024/02/01 03:03:40;;;;;;;33.70;21.70;;;;;;;1.82;100.00;101643.63;105915;1257;71802;-86
2024/02/01 03:06:08;;;;;;;24.80;15.40;;;;;;;1.84;100.00;101646.53;105704;1257;64164;-84
2024/02/01 03:08:42;;;;;;;23.10;15.20;;;;;;;1.87;100.00;101645.48;105896;1257;71296;-84
2024/02/01 03:11:12;;;;;;;24.20;15.60;;;;;;;1.91;100.00;101646.33;106674;1257;59840;-82
2024/02/01 03:13:39;;;;;;;23.60;15.20;;;;;;;1.94;100.00;101642.33;105973;1257;60187;-83
2024/02/01 03:16:20;;;;;;;24.90;15.10;;;;;;;1.97;100.00;101638.66;106272;1252;72910;-82
2024/02/01 03:18:49;;;;;;;24.80;15.60;;;;;;;2.01;100.00;101635.89;106181;1267;62648;-85
2024/02/01 03:21:16;;;;;;;25.30;16.80;;;;;;;2.00;100.00;101631.41;106561;1254;71676;-82
2024/02/01 03:23:45;;;;;;;24.40;16.40;;;;;;;2.06;100.00;101634.30;106618;1253;59759;-85
2024/02/01 03:26:13;;;;;;;30.40;18.80;;;;;;;2.08;100.00;101625.66;106139;1256;60298;-83
2024/02/01 03:28:41;;;;;;;42.60;22.80;;;;;;;2.08;100.00;101627.38;105924;1257;72944;-82
2024/02/01 03:31:09;;;;;;;41.30;23.90;;;;;;;2.07;100.00;101631.86;105994;1256;63890;-83
2024/02/01 03:33:39;;;;;;;31.50;19.30;;;;;;;2.06;100.00;101630.84;105893;1255;73203;-82
2024/02/01 03:36:09;;;;;;;31.70;20.60;;;;;;;2.04;100.00;101627.75;106013;1254;60933;-82
2024/02/01 03:38:40;;;;;;;34.80;20.70;;;;;;;2.00;100.00;101617.96;106109;1256;59708;-83
2024/02/01 03:41:07;;;;;;;35.90;21.70;;;;;;;1.95;100.00;101609.38;106047;1252;71904;-83
2024/02/01 03:43:33;;;;;;;37.40;21.70;;;;;;;1.88;100.00;101605.98;106547;1256;64103;-83
2024/02/01 03:46:00;;;;;;;38.70;23.30;;;;;;;1.81;100.00;101599.66;106022;1257;71032;-83
2024/02/01 03:48:28;;;;;;;43.00;22.80;;;;;;;1.74;100.00;101599.55;106197;1258;61847;-83
2024/02/01 03:50:56;;;;;;;41.10;23.00;;;;;;;1.66;100.00;101597.36;105995;1254;60153;-83
2024/02/01 03:53:23;;;;;;;33.90;21.60;;;;;;;1.59;100.00;101597.93;106202;1254;72928;-81
2024/02/01 03:55:50;;;;;;;39.40;21.00;;;;;;;1.55;100.00;101594.69;106165;1256;62456;-84
2024/02/01 03:58:18;;;;;;;36.20;22.70;;;;;;;1.52;100.00;101588.84;106253;1256;71614;-82
2024/02/01 04:00:50;;;;;;;39.90;22.90;;;;;;;1.50;100.00;101584.38;106724;1253;61293;-84
2024/02/01 04:03:18;;;;;;;42.60;24.20;;;;;;;1.49;100.00;101581.98;106220;1258;59654;-81
2024/02/01 04:05:45;;;;;;;53.00;29.10;;;;;;;1.46;100.00;101580.27;106039;1256;72925;-84
2024/02/01 04:08:19;;;;;;;47.90;26.20;;;;;;;1.43;100.00;101577.71;106079;1254;62626;-85
2024/02/01 04:10:46;;;;;;;44.90;25.50;;;;;;;1.39;100.00;101585.83;106030;1254;72536;-82
2024/02/01 04:13:13;;;;;;;41.30;26.00;;;;;;;1.36;100.00;101588.42;105951;1254;59761;-83
2024/02/01 04:15:40;;;;;;;41.60;24.60;;;;;;;1.32;100.00;101587.09;105937;1256;60456;-82
2024/02/01 04:18:07;;;;;;;39.90;24.10;;;;;;;1.30;100.00;101590.38;106132;1257;72850;-83
2024/02/01 04:20:34;;;;;;;41.10;24.40;;;;;;;1.29;100.00;101589.67;106094;1258;63713;-85
2024/02/01 04:23:01;;;;;;;37.20;22.50;;;;;;;1.27;100.00;101596.25;105943;1257;72476;-81
2024/02/01 04:25:28;;;;;;;39.40;23.30;;;;;;;1.27;100.00;101594.01;106102;1258;60948;-83
2024/02/01 04:27:55;;;;;;;38.90;21.60;;;;;;;1.26;100.00;101593.31;106130;1254;60162;-83
2024/02/01 04:30:25;;;;;;;36.90;21.20;;;;;;;1.26;100.00;101596.06;106122;1254;71625;-82
2024/02/01 04:32:53;;;;;;;34.00;19.70;;;;;;;1.26;100.00;101591.93;106370;1255;62546;-83
2024/02/01 04:35:20;;;;;;;40.10;21.40;;;;;;;1.26;100.00;101591.25;107046;1257;71237;-83
2024/02/01 04:37:52;;;;;;;36.50;21.10;;;;;;;1.27;100.00;101586.77;106233;1252;60909;-83
2024/02/01 04:40:21;;;;;;;37.30;22.50;;;;;;;1.26;100.00;101583.67;106047;1254;60318;-84
2024/02/01 04:42:51;;;;;;;37.70;22.60;;;;;;;1.23;100.00;101584.21;105977;1255;74019;-82
2024/02/01 04:45:18;;;;;;;42.10;22.60;;;;;;;1.23;100.00;101582.84;106177;1254;63820;-83
2024/02/01 04:47:45;;;;;;;39.90;23.10;;;;;;;1.23;100.00;101576.80;106157;1256;72398;-82
2024/02/01 04:50:13;;;;;;;41.60;23.80;;;;;;;1.23;100.00;101584.21;106173;1256;61440;-82
2024/02/01 04:52:41;;;;;;;46.50;25.20;;;;;;;1.22;100.00;101586.11;106222;1257;59720;-83
2024/02/01 04:55:09;;;;;;;44.60;27.10;;;;;;;1.22;100.00;101584.91;106118;1255;70687;-82
2024/02/01 04:57:40;;;;;;;45.90;25.60;;;;;;;1.23;100.00;101585.94;106290;1256;64042;-82
2024/02/01 05:00:16;;;;;;;50.80;27.50;;;;;;;1.23;100.00;101576.81;106204;1257;72330;-83
2024/02/01 05:02:47;;;;;;;46.50;26.10;;;;;;;1.26;100.00;101571.44;106144;1257;61208;-85
2024/02/01 05:05:16;;;;;;;48.60;26.50;;;;;;;1.28;100.00;101570.74;106196;1254;60027;-82
2024/02/01 05:07:44;;;;;;;46.60;25.90;;;;;;;1.30;100.00;101562.46;106179;1253;72958;-82
2024/02/01 05:10:15;;;;;;;46.90;26.30;;;;;;;1.33;100.00;101563.30;106147;1254;62672;-82
2024/02/01 05:12:42;;;;;;;44.10;25.10;;;;;;;1.36;100.00;101568.63;106168;1257;72603;-84
2024/02/01 05:15:09;;;;;;;42.60;25.80;;;;;;;1.37;100.00;101577.92;106073;1254;59665;-83
2024/02/01 05:17:37;;;;;;;42.00;24.00;;;;;;;1.39;100.00;101579.63;106079;1253;60796;-84
2024/02/01 05:20:08;;;;;;;43.80;23.80;;;;;;;1.39;100.00;101574.80;105998;1252;73051;-83
2024/02/01 05:22:36;;;;;;;42.90;25.10;;;;;;;1.39;100.00;101577.90;106119;1257;63940;-83
2024/02/01 05:25:15;;;;;;;42.30;24.00;;;;;;;1.40;100.00;101576.17;106064;1252;71153;-82
2024/02/01 05:27:50;;;;;;;37.30;22.60;;;;;;;1.41;100.00;101570.31;106234;1256;61241;-83
2024/02/01 05:30:19;;;;;;;36.50;22.70;;;;;;;1.41;100.00;101577.20;106132;1253;59648;-84
2024/02/01 05:32:53;;;;;;;37.20;22.80;;;;;;;1.41;100.00;101572.56;106346;1256;71639;-84
2024/02/01 05:35:28;;;;;;;45.80;25.40;;;;;;;1.40;100.00;101566.36;106106;1256;63803;-81
2024/02/01 05:37:56;;;;;;;40.40;24.40;;;;;;;1.39;100.00;101562.05;106049;1257;72813;-82
2024/02/01 05:40:24;;;;;;;40.80;22.30;;;;;;;1.39;100.00;101557.73;106114;1256;61081;-84
2024/02/01 05:42:52;;;;;;;38.90;23.80;;;;;;;1.40;100.00;101551.20;106201;1254;60684;-84
2024/02/01 05:45:19;;;;;;;43.00;25.30;;;;;;;1.41;100.00;101547.75;106153;1257;72521;-83
2024/02/01 05:47:46;;;;;;;47.50;26.70;;;;;;;1.43;100.00;101549.11;106191;1253;62461;-83
2024/02/01 05:50:14;;;;;;;45.60;28.60;;;;;;;1.46;100.00;101551.49;106178;1254;72722;-83
2024/02/01 05:52:41;;;;;;;48.20;26.60;;;;;;;1.50;100.00;101545.95;106031;1254;60433;-83
2024/02/01 05:55:13;;;;;;;47.90;25.00;;;;;;;1.52;100.00;101540.09;106110;1256;60412;-81
2024/02/01 05:57:43;;;;;;;40.60;24.60;;;;;;;1.55;100.00;101542.30;106017;1253;73892;-82
2024/02/01 06:00:11;;;;;;;44.30;26.40;;;;;;;1.58;100.00;101534.19;106222;1257;64621;-83
2024/02/01 06:02:42;;;;;;;39.70;25.30;;;;;;;1.62;100.00;101530.34;105951;1254;71472;-83
2024/02/01 06:05:10;;;;;;;38.80;24.50;;;;;;;1.65;100.00;101526.19;106179;1257;60565;-83
2024/02/01 06:07:37;;;;;;;36.60;22.20;;;;;;;1.67;100.00;101521.16;105983;1252;60333;-83
2024/02/01 06:10:04;;;;;;;38.80;23.00;;;;;;;1.70;100.00;101520.82;106263;1253;73079;-85
2024/02/01 06:12:32;;;;;;;41.30;24.50;;;;;;;1.72;100.00;101518.88;106125;1257;63930;-85
2024/02/01 06:15:06;;;;;;;46.10;26.20;;;;;;;1.77;100.00;101522.11;106222;1251;72560;-83
2024/02/01 06:17:34;;;;;;;41.30;25.20;;;;;;;1.82;100.00;101516.03;106252;1256;62595;-83
2024/02/01 06:20:02;;;;;;;36.00;24.60;;;;;;;1.88;100.00;101515.80;106722;1257;60542;-84
2024/02/01 06:22:31;;;;;;;41.10;25.70;;;;;;;1.91;100.00;101511.46;108646;1254;74283;-82
2024/02/01 06:24:59;;;;;;;33.90;22.40;;;;;;;1.94;100.00;101511.43;108788;1251;63231;-82
2024/02/01 06:27:26;;;;;;;36.50;22.60;;;;;;;1.97;100.00;101511.23;107645;1251;71405;-84
2024/02/01 06:29:53;;;;;;;33.80;22.40;;;;;;;2.00;100.00;101504.14;106308;1256;60476;-83
2024/02/01 06:32:22;;;;;;;31.30;21.50;;;;;;;2.02;100.00;101503.60;106415;1251;60357;-84
2024/02/01 06:35:05;;;;;;;38.90;23.70;;;;;;;2.04;100.00;101497.19;106393;1255;73489;-84
2024/02/01 06:37:35;;;;;;;41.20;22.90;;;;;;;2.06;100.00;101505.11;106364;1256;63810;-84
2024/02/01 06:45:44;;;;;;;43.10;23.90;;;;;;;2.19;100.00;101497.89;106192;1252;60457;-85
2024/02/01 06:48:12;;;;;;;39.90;24.40;;;;;;;2.26;100.00;101497.48;106207;1252;72512;-84
2024/02/01 06:51:17;;;;;;;40.70;24.50;;;;;;;2.30;100.00;101493.27;106155;1253;63712;-84
2024/02/01 06:53:34;;;;;;;47.00;28.10;;;;;;;2.37;100.00;101487.86;105999;1254;72778;-84
2024/02/01 06:56:07;;;;;;;42.70;26.50;;;;;;;2.42;100.00;101484.86;105952;1254;60453;-83
2024/02/01 06:58:47;;;;;;;49.10;28.30;;;;;;;2.43;100.00;101478.46;106238;1254;60440;-83
2024/02/01 07:01:24;;;;;;;43.50;23.80;;;;;;;2.45;100.00;101473.61;106971;1254;73749;-82
2024/02/01 07:03:57;;;;;;;47.60;27.30;;;;;;;2.47;100.00;101457.19;106294;1254;63864;-82
2024/02/01 07:06:39;;;;;;;46.30;26.90;;;;;;;2.48;100.00;101453.38;106455;1254;72444;-83
2024/02/01 07:09:27;;;;;;;35.90;23.90;;;;;;;2.51;100.00;101444.72;106542;1252;60462;-84
2024/02/01 07:11:59;;;;;;;37.70;22.70;;;;;;;2.52;100.00;101444.18;106175;1251;60453;-83
2024/02/01 07:14:36;;;;;;;31.10;20.60;;;;;;;2.53;100.00;101445.90;106176;1254;72496;-82
2024/02/01 07:17:27;;;;;;;39.80;24.60;;;;;;;2.55;100.00;101444.84;105994;1256;64972;-84
2024/02/01 07:19:58;;;;;;;40.50;23.10;;;;;;;2.61;100.00;101442.69;106079;1256;72482;-82
2024/02/01 07:23:00;;;;;;;44.30;26.20;;;;;;;2.69;100.00;101440.15;106056;1256;60542;-84
2024/02/01 07:25:48;;;;;;;42.90;25.70;;;;;;;2.81;100.00;101440.50;106049;1254;60374;-84
2024/02/01 07:58:53;;;;;;;28.60;21.50;;;;;;;4.04;100.00;101437.01;106457;1252;62541;-83
2024/02/01 08:01:24;;;;;;;39.20;24.60;;;;;;;4.12;100.00;101434.08;108007;1251;72949;-79
2024/02/01 08:04:01;;;;;;;31.80;22.10;;;;;;;4.24;100.00;101433.15;109732;1251;59103;-81
2024/02/01 08:09:15;;;;;;;35.20;23.30;;;;;;;4.36;100.00;101431.86;109742;1251;72234;-83
2024/02/01 08:11:42;;;;;;;37.50;22.60;;;;;;;4.35;100.00;101430.33;109685;1251;62365;-83
2024/02/01 08:14:16;;;;;;;31.40;21.40;;;;;;;4.31;100.00;101435.77;109645;1251;70368;-83
2024/02/01 08:20:11;;;;;;;37.10;22.70;;;;;;;4.28;100.00;101427.86;106625;1258;1003197;31
2024/02/01 08:26:05;;;;;;;32.30;22.30;;;;;;;4.28;100.00;101417.13;108444;1270;63218;-84
2024/02/01 08:36:01;;;;;;;32.80;22.00;;;;;;;4.28;100.00;101406.91;108187;1270;59472;-84
2024/02/01 08:38:34;;;;;;;38.10;24.20;;;;;;;4.33;100.00;101408.38;108077;1270;71758;-82
2024/02/01 08:41:03;;;;;;;37.70;24.40;;;;;;;4.39;100.00;101403.59;107927;1272;64338;-84
2024/02/01 08:43:30;;;;;;;36.50;24.30;;;;;;;4.45;100.00;101396.70;105576;1274;70600;-84
2024/02/01 08:45:59;;;;;;;39.50;25.30;;;;;;;4.49;100.00;101396.77;105544;1273;60504;-84
2024/02/01 08:48:26;;;;;;;42.30;28.20;;;;;;;4.51;100.00;101393.27;105882;1273;60443;-85
2024/02/01 08:50:55;;;;;;;43.40;28.40;;;;;;;4.56;100.00;101392.63;105862;1272;74056;-84
2024/02/01 08:53:22;;;;;;;34.30;24.10;;;;;;;4.64;100.00;101389.17;106154;1273;61754;-83
2024/02/01 08:55:52;;;;;;;35.90;22.70;;;;;;;4.75;100.00;101391.16;105853;1273;71713;-85
2024/02/01 08:58:20;;;;;;;40.80;23.80;;;;;;;4.94;100.00;101387.75;105854;1275;60459;-84
2024/02/01 09:00:49;;;;;;;35.70;24.20;;;;;;;5.13;100.00;101379.84;105950;1272;60485;-84
2024/02/01 09:03:16;;;;;;;35.40;23.30;;;;;;;5.31;100.00;101378.70;105489;1273;73945;-83
2024/02/01 09:05:45;;;;;;;29.30;20.00;;;;;;;5.48;100.00;101379.46;105406;1272;64258;-84
2024/02/01 09:08:24;;;;;;;30.40;20.60;;;;;;;5.65;100.00;101377.63;105318;1273;73674;-86
2024/02/01 09:10:58;;;;;;;34.10;23.50;;;;;;;5.80;100.00;101367.67;105347;1274;60399;-84
2024/02/01 09:13:28;;;;;;;38.40;24.10;;;;;;;5.92;100.00;101358.48;105080;1276;60600;-83
2024/02/01 09:15:56;;;;;;;37.30;26.60;;;;;;;5.96;100.00;101357.87;105234;1273;74122;-85
2024/02/01 09:18:26;;;;;;;39.10;25.50;;;;;;;6.01;100.00;101352.53;105161;1272;64139;-85
2024/02/01 09:20:53;;;;;;;34.60;23.40;;;;;;;6.06;100.00;101355.85;104982;1276;71583;-85
2024/02/01 09:23:22;;;;;;;44.70;25.90;;;;;;;6.06;100.00;101349.77;105017;1275;60504;-84
2024/02/01 09:25:50;;;;;;;38.00;22.70;;;;;;;6.03;100.00;101344.83;105101;1276;60582;-85
2024/02/01 09:28:18;;;;;;;33.10;21.80;;;;;;;6.04;100.00;101343.24;105231;1276;73083;-84
2024/02/01 09:30:46;;;;;;;34.20;23.20;;;;;;;6.07;100.00;101339.67;105075;1272;63833;-84
2024/02/01 09:33:18;;;;;;;47.10;28.80;;;;;;;6.13;100.00;101331.70;105194;1274;72737;-85
2024/02/01 09:35:46;;;;;;;48.80;28.30;;;;;;;6.13;100.00;101324.90;104845;1273;60531;-83
2024/02/01 09:38:13;;;;;;;36.30;25.10;;;;;;;6.12;100.00;101321.98;105040;1274;60529;-85
2024/02/01 09:40:43;;;;;;;39.20;23.60;;;;;;;6.13;100.00;101315.88;104792;1273;74642;-84
2024/02/01 09:43:18;;;;;;;37.30;24.50;;;;;;;6.20;100.00;101314.98;105159;1273;65152;-82
2024/02/01 09:45:52;;;;;;;35.20;22.90;;;;;;;6.29;100.00;101311.94;104872;1276;72694;-84
2024/02/01 09:48:19;;;;;;;37.30;24.70;;;;;;;6.38;100.00;101304.86;105027;1273;61609;-82
2024/02/01 09:50:50;;;;;;;35.50;22.90;;;;;;;6.48;100.00;101311.34;104861;1272;60478;-84
2024/02/01 09:53:21;;;;;;;38.20;24.20;;;;;;;6.57;100.00;101314.52;104905;1274;74587;-84
2024/02/01 09:55:54;;;;;;;33.80;22.30;;;;;;;6.64;100.00;101312.73;104765;1275;65077;-83
2024/02/01 09:58:21;;;;;;;37.80;24.90;;;;;;;6.69;100.00;101311.19;104729;1273;71529;-83
2024/02/01 10:00:49;;;;;;;41.00;24.60;;;;;;;6.73;100.00;101314.71;104864;1277;60629;-84
2024/02/01 10:03:23;;;;;;;40.00;25.30;;;;;;;6.75;100.00;101313.08;104370;1276;61399;-86
2024/02/01 10:05:50;;;;;;;33.00;23.80;;;;;;;6.74;100.00;101307.88;104734;1275;74342;-85
2024/02/01 10:08:17;;;;;;;36.40;25.00;;;;;;;6.72;100.00;101305.17;104691;1274;65081;-84
2024/02/01 10:10:45;;;;;;;35.30;21.20;;;;;;;6.71;100.00;101303.29;104798;1276;71572;-83
2024/02/01 10:13:16;;;;;;;30.60;20.90;;;;;;;6.69;100.00;101295.04;104965;1277;60517;-83
2024/02/01 10:15:47;;;;;;;31.40;21.60;;;;;;;6.67;100.00;101300.98;104802;1276;60466;-85
2024/02/01 10:18:21;;;;;;;35.50;23.30;;;;;;;6.66;100.00;101294.59;104754;1276;72346;-86
2024/02/01 10:20:53;;;;;;;28.80;20.50;;;;;;;6.64;100.00;101285.96;104859;1277;62854;-84
2024/02/01 10:23:20;;;;;;;30.40;20.00;;;;;;;6.57;100.00;101274.58;104981;1273;71430;-86
2024/02/01 10:25:53;;;;;;;29.70;20.00;;;;;;;6.49;100.00;101271.86;104975;1276;61319;-84
2024/02/01 10:28:22;;;;;;;28.60;19.30;;;;;;;6.45;100.00;101266.80;105152;1273;60481;-85
2024/02/01 10:30:50;;;;;;;30.80;20.70;;;;;;;6.45;100.00;101261.23;105249;1273;75588;-82
2024/02/01 10:33:19;;;;;;;32.00;21.80;;;;;;;6.45;100.00;101261.76;105229;1276;64184;-84
2024/02/01 10:35:48;;;;;;;34.40;23.30;;;;;;;6.48;100.00;101262.37;104846;1272;71720;-83
2024/02/01 10:38:26;;;;;;;36.70;24.50;;;;;;;6.49;100.00;101266.66;105230;1273;61211;-84
2024/02/01 10:40:58;;;;;;;36.20;23.40;;;;;;;6.53;100.00;101261.67;104832;1273;60663;-84
2024/02/01 10:43:29;;;;;;;39.50;23.60;;;;;;;6.55;100.00;101259.52;104795;1272;74151;-84
2024/02/01 10:46:09;;;;;;;38.70;23.50;;;;;;;6.55;100.00;101263.34;104464;1273;62552;-84
2024/02/01 10:48:59;;;;;;;30.30;20.50;;;;;;;6.58;100.00;101266.89;104931;1271;72460;-84
2024/02/01 10:51:26;;;;;;;28.00;19.10;;;;;;;6.63;100.00;101263.94;104873;1277;60425;-85
2024/02/01 10:53:59;;;;;;;29.30;20.30;;;;;;;6.69;100.00;101266.01;104814;1273;61453;-85
2024/02/01 10:56:29;;;;;;;28.60;20.60;;;;;;;6.72;100.00;101262.44;104730;1280;73039;-86
2024/02/01 10:58:58;;;;;;;37.60;22.90;;;;;;;6.74;100.00;101261.84;104757;1274;64264;-84
2024/02/01 11:01:28;;;;;;;30.20;21.00;;;;;;;6.77;100.00;101256.86;104863;1273;71652;-84
2024/02/01 11:04:00;;;;;;;33.40;21.90;;;;;;;6.80;100.00;101258.14;104563;1277;61926;-85
2024/02/01 11:06:28;;;;;;;43.50;25.10;;;;;;;6.83;100.00;101258.23;104967;1271;60526;-85
2024/02/01 11:08:56;;;;;;;38.80;26.40;;;;;;;6.87;100.00;101255.30;104520;1273;73919;-85
2024/02/01 11:11:29;;;;;;;34.20;25.60;;;;;;;6.93;100.00;101251.98;104334;1272;63819;-84
2024/02/01 11:14:09;;;;;;;34.10;24.00;;;;;;;6.94;100.00;101248.99;104519;1273;71925;-84
2024/02/01 11:16:46;;;;;;;34.30;22.50;;;;;;;6.91;100.00;101245.80;104510;1276;61337;-83
2024/02/01 11:19:14;;;;;;;35.70;23.60;;;;;;;6.91;100.00;101245.29;104617;1274;60557;-83
2024/02/01 11:21:50;;;;;;;39.10;23.70;;;;;;;6.95;100.00;101241.33;104317;1276;74241;-83
2024/02/01 11:24:21;;;;;;;37.10;21.90;;;;;;;7.03;100.00;101235.96;104380;1274;63153;-82
2024/02/01 11:26:54;;;;;;;33.10;22.20;;;;;;;7.15;100.00;101230.71;104467;1278;71760;-83
2024/02/01 11:29:24;;;;;;;31.50;21.60;;;;;;;7.24;100.00;101225.48;104404;1276;60537;-82
2024/02/01 11:31:55;;;;;;;37.80;22.80;;;;;;;7.32;100.00;101224.70;104541;1273;61419;-81
2024/02/01 11:34:22;;;;;;;31.20;21.00;;;;;;;7.38;100.00;101222.02;104717;1274;73717;-83
2024/02/01 11:36:56;;;;;;;30.40;22.10;;;;;;;7.43;100.00;101220.08;105761;1272;64551;-83
2024/02/01 11:39:23;;;;;;;33.00;21.50;;;;;;;7.41;100.00;101212.70;107232;1273;72403;-83
2024/02/01 11:41:51;;;;;;;33.10;22.50;;;;;;;7.33;100.00;101209.51;108185;1272;60990;-81
2024/02/01 11:44:20;;;;;;;35.70;22.60;;;;;;;7.29;100.00;101205.47;108121;1272;60456;-80
2024/02/01 11:46:48;;;;;;;33.70;23.50;;;;;;;7.31;100.00;101200.56;107911;1272;74312;-82
2024/02/01 11:49:19;;;;;;;38.40;23.30;;;;;;;7.36;100.00;101200.89;108172;1272;63766;-85
2024/02/01 11:52:16;;;;;;;32.20;21.80;;;;;;;7.41;100.00;101195.81;107931;1271;72970;-84
2024/02/01 11:54:46;;;;;;;31.40;22.50;;;;;;;7.43;100.00;101188.09;108127;1276;60190;-83
2024/02/01 11:57:17;;;;;;;38.70;23.20;;;;;;;7.44;100.00;101183.69;108075;1272;60477;-83
2024/02/01 11:59:45;;;;;;;34.90;22.00;;;;;;;7.43;100.00;101177.29;107484;1272;74067;-84
2024/02/01 12:02:12;;;;;;;34.80;22.30;;;;;;;7.44;100.00;101177.42;106722;1274;61665;-84
2024/02/01 12:04:45;;;;;;;34.20;23.40;;;;;;;7.44;100.00;101181.61;106163;1273;74073;-84
2024/02/01 12:07:16;;;;;;;31.30;21.50;;;;;;;7.42;100.00;101176.99;105444;1273;61522;-83